sensor_id;sensor_type;location;lat;lon;timestamp;P1;durP1;ratioP1;P2;durP2;ratioP2
21959;SDS011;11144;43.030;25.108;2022-09-09T00:01:25;11.35;;;7.78;;
21959;SDS011;11144;43.030;25.108;2022-09-09T00:03:07;7.95;;;6.82;;
21959;SDS011;11144;43.030;25.108;2022-09-09T00:04:51;9.73;;;6.53;;
21959;SDS011;11144;43.030;25.108;2022-09-09T00:06:42;9.88;;;6.68;;
21959;SDS011;11144;43.030;25.108;2022-09-09T00:08:18;8.20;;;7.25;;
21959;SDS011;11144;43.030;25.108;2022-09-09T00:10:03;8.73;;;6.35;;
21959;SDS011;11144;43.030;25.108;2022-09-09T00:11:52;8.57;;;6.72;;
21959;SDS011;11144;43.030;25.108;2022-09-09T00:13:28;9.18;;;6.68;;
21959;SDS011;11144;43.030;25.108;2022-09-09T00:15:07;11.02;;;6.45;;
21959;SDS011;11144;43.030;25.108;2022-09-09T00:16:47;7.45;;;6.72;;
21959;SDS011;11144;43.030;25.108;2022-09-09T00:18:27;7.60;;;6.72;;
21959;SDS011;11144;43.030;25.108;2022-09-09T00:20:09;10.38;;;6.65;;
21959;SDS011;11144;43.030;25.108;2022-09-09T00:21:47;10.07;;;6.95;;
21959;SDS011;11144;43.030;25.108;2022-09-09T00:23:30;7.80;;;6.75;;
21959;SDS011;11144;43.030;25.108;2022-09-09T00:25:08;7.90;;;6.13;;
21959;SDS011;11144;43.030;25.108;2022-09-09T00:26:51;7.72;;;6.63;;
21959;SDS011;11144;43.030;25.108;2022-09-09T00:28:29;10.25;;;6.97;;
21959;SDS011;11144;43.030;25.108;2022-09-09T00:30:13;8.30;;;7.10;;
21959;SDS011;11144;43.030;25.108;2022-09-09T00:31:50;8.02;;;6.50;;
21959;SDS011;11144;43.030;25.108;2022-09-09T00:33:27;10.00;;;7.28;;
21959;SDS011;11144;43.030;25.108;2022-09-09T00:35:04;9.43;;;7.32;;
21959;SDS011;11144;43.030;25.108;2022-09-09T00:36:50;9.13;;;7.25;;
21959;SDS011;11144;43.030;25.108;2022-09-09T00:38:27;8.50;;;6.97;;
21959;SDS011;11144;43.030;25.108;2022-09-09T00:40:06;8.20;;;7.32;;
21959;SDS011;11144;43.030;25.108;2022-09-09T00:41:55;8.50;;;6.70;;
21959;SDS011;11144;43.030;25.108;2022-09-09T00:43:40;7.38;;;6.40;;
21959;SDS011;11144;43.030;25.108;2022-09-09T00:45:18;8.50;;;7.53;;
21959;SDS011;11144;43.030;25.108;2022-09-09T00:47:16;8.85;;;7.25;;
21959;SDS011;11144;43.030;25.108;2022-09-09T00:49:09;11.40;;;7.20;;
21959;SDS011;11144;43.030;25.108;2022-09-09T00:50:53;9.55;;;6.80;;
21959;SDS011;11144;43.030;25.108;2022-09-09T00:52:33;10.73;;;6.90;;
21959;SDS011;11144;43.030;25.108;2022-09-09T00:54:16;7.65;;;6.88;;
21959;SDS011;11144;43.030;25.108;2022-09-09T00:56:03;7.95;;;6.90;;
21959;SDS011;11144;43.030;25.108;2022-09-09T00:57:46;9.40;;;6.93;;
21959;SDS011;11144;43.030;25.108;2022-09-09T00:59:25;8.52;;;6.38;;
21959;SDS011;11144;43.030;25.108;2022-09-09T01:01:08;11.20;;;6.80;;
21959;SDS011;11144;43.030;25.108;2022-09-09T01:02:46;8.75;;;7.72;;
21959;SDS011;11144;43.030;25.108;2022-09-09T01:04:27;7.70;;;6.68;;
21959;SDS011;11144;43.030;25.108;2022-09-09T01:06:14;9.20;;;7.13;;
21959;SDS011;11144;43.030;25.108;2022-09-09T01:07:51;14.10;;;7.13;;
21959;SDS011;11144;43.030;25.108;2022-09-09T01:09:29;7.53;;;6.82;;
21959;SDS011;11144;43.030;25.108;2022-09-09T01:11:13;8.77;;;6.65;;
21959;SDS011;11144;43.030;25.108;2022-09-09T01:12:54;7.03;;;6.32;;
21959;SDS011;11144;43.030;25.108;2022-09-09T01:14:38;8.05;;;6.53;;
21959;SDS011;11144;43.030;25.108;2022-09-09T01:16:15;9.80;;;6.70;;
21959;SDS011;11144;43.030;25.108;2022-09-09T01:17:52;10.02;;;6.88;;
21959;SDS011;11144;43.030;25.108;2022-09-09T01:19:36;9.85;;;6.97;;
21959;SDS011;11144;43.030;25.108;2022-09-09T01:21:21;8.00;;;6.57;;
21959;SDS011;11144;43.030;25.108;2022-09-09T01:23:25;9.88;;;6.45;;
21959;SDS011;11144;43.030;25.108;2022-09-09T01:26:04;9.15;;;7.05;;
21959;SDS011;11144;43.030;25.108;2022-09-09T01:27:46;9.75;;;7.75;;
21959;SDS011;11144;43.030;25.108;2022-09-09T01:29:22;7.65;;;6.60;;
21959;SDS011;11144;43.030;25.108;2022-09-09T01:30:55;8.27;;;7.38;;
21959;SDS011;11144;43.030;25.108;2022-09-09T01:32:37;9.02;;;6.68;;
21959;SDS011;11144;43.030;25.108;2022-09-09T01:34:15;16.38;;;7.13;;
21959;SDS011;11144;43.030;25.108;2022-09-09T01:35:50;10.23;;;6.68;;
21959;SDS011;11144;43.030;25.108;2022-09-09T01:37:32;8.20;;;6.38;;
21959;SDS011;11144;43.030;25.108;2022-09-09T01:39:05;10.35;;;7.00;;
21959;SDS011;11144;43.030;25.108;2022-09-09T01:40:39;8.13;;;6.55;;
21959;SDS011;11144;43.030;25.108;2022-09-09T01:42:15;10.88;;;6.63;;
21959;SDS011;11144;43.030;25.108;2022-09-09T01:43:49;8.20;;;6.60;;
21959;SDS011;11144;43.030;25.108;2022-09-09T01:45:23;10.93;;;6.30;;
21959;SDS011;11144;43.030;25.108;2022-09-09T01:46:57;11.27;;;6.97;;
21959;SDS011;11144;43.030;25.108;2022-09-09T01:48:31;8.50;;;6.70;;
21959;SDS011;11144;43.030;25.108;2022-09-09T01:50:07;11.23;;;6.75;;
21959;SDS011;11144;43.030;25.108;2022-09-09T01:51:46;7.90;;;6.97;;
21959;SDS011;11144;43.030;25.108;2022-09-09T01:53:28;8.57;;;7.10;;
21959;SDS011;11144;43.030;25.108;2022-09-09T01:55:01;9.18;;;7.45;;
21959;SDS011;11144;43.030;25.108;2022-09-09T01:56:43;9.75;;;7.07;;
21959;SDS011;11144;43.030;25.108;2022-09-09T01:58:28;9.75;;;7.32;;
21959;SDS011;11144;43.030;25.108;2022-09-09T02:00:07;11.20;;;6.82;;
21959;SDS011;11144;43.030;25.108;2022-09-09T02:01:51;7.50;;;6.78;;
21959;SDS011;11144;43.030;25.108;2022-09-09T02:03:34;7.65;;;6.85;;
21959;SDS011;11144;43.030;25.108;2022-09-09T02:05:21;10.00;;;6.85;;
21959;SDS011;11144;43.030;25.108;2022-09-09T02:07:07;7.22;;;6.40;;
21959;SDS011;11144;43.030;25.108;2022-09-09T02:08:55;10.45;;;7.07;;
21959;SDS011;11144;43.030;25.108;2022-09-09T02:10:31;10.25;;;6.43;;
21959;SDS011;11144;43.030;25.108;2022-09-09T02:12:18;7.50;;;6.63;;
21959;SDS011;11144;43.030;25.108;2022-09-09T02:14:01;11.18;;;7.88;;
21959;SDS011;11144;43.030;25.108;2022-09-09T02:15:42;8.00;;;7.13;;
21959;SDS011;11144;43.030;25.108;2022-09-09T02:17:19;11.88;;;7.25;;
21959;SDS011;11144;43.030;25.108;2022-09-09T02:19:13;8.10;;;7.13;;
21959;SDS011;11144;43.030;25.108;2022-09-09T02:21:08;8.43;;;6.93;;
21959;SDS011;11144;43.030;25.108;2022-09-09T02:22:45;10.60;;;6.53;;
21959;SDS011;11144;43.030;25.108;2022-09-09T02:24:23;13.90;;;7.22;;
21959;SDS011;11144;43.030;25.108;2022-09-09T02:26:10;7.53;;;6.60;;
21959;SDS011;11144;43.030;25.108;2022-09-09T02:27:54;8.98;;;6.97;;
21959;SDS011;11144;43.030;25.108;2022-09-09T02:29:33;8.10;;;6.90;;
21959;SDS011;11144;43.030;25.108;2022-09-09T02:31:08;11.32;;;6.78;;
21959;SDS011;11144;43.030;25.108;2022-09-09T02:32:45;8.63;;;6.25;;
21959;SDS011;11144;43.030;25.108;2022-09-09T02:34:21;9.45;;;7.43;;
21959;SDS011;11144;43.030;25.108;2022-09-09T02:35:56;9.30;;;7.45;;
21959;SDS011;11144;43.030;25.108;2022-09-09T02:37:36;10.25;;;7.22;;
21959;SDS011;11144;43.030;25.108;2022-09-09T02:39:11;8.57;;;7.25;;
21959;SDS011;11144;43.030;25.108;2022-09-09T02:40:45;9.95;;;6.65;;
21959;SDS011;11144;43.030;25.108;2022-09-09T02:42:20;10.48;;;7.30;;
21959;SDS011;11144;43.030;25.108;2022-09-09T02:43:56;10.43;;;7.15;;
21959;SDS011;11144;43.030;25.108;2022-09-09T02:45:34;14.02;;;6.93;;
21959;SDS011;11144;43.030;25.108;2022-09-09T02:47:20;9.93;;;7.00;;
21959;SDS011;11144;43.030;25.108;2022-09-09T02:49:04;11.15;;;7.82;;
21959;SDS011;11144;43.030;25.108;2022-09-09T02:50:47;14.95;;;7.50;;
21959;SDS011;11144;43.030;25.108;2022-09-09T02:52:32;8.30;;;7.07;;
21959;SDS011;11144;43.030;25.108;2022-09-09T02:54:21;9.98;;;7.40;;
21959;SDS011;11144;43.030;25.108;2022-09-09T02:56:00;10.82;;;7.32;;
21959;SDS011;11144;43.030;25.108;2022-09-09T02:57:41;9.82;;;7.00;;
21959;SDS011;11144;43.030;25.108;2022-09-09T02:59:21;10.57;;;7.40;;
21959;SDS011;11144;43.030;25.108;2022-09-09T03:00:59;11.20;;;8.00;;
21959;SDS011;11144;43.030;25.108;2022-09-09T03:02:35;10.10;;;7.30;;
21959;SDS011;11144;43.030;25.108;2022-09-09T03:04:10;9.75;;;7.45;;
21959;SDS011;11144;43.030;25.108;2022-09-09T03:05:44;8.15;;;7.18;;
21959;SDS011;11144;43.030;25.108;2022-09-09T03:07:17;9.32;;;6.63;;
21959;SDS011;11144;43.030;25.108;2022-09-09T03:08:52;8.15;;;6.88;;
21959;SDS011;11144;43.030;25.108;2022-09-09T03:10:30;9.55;;;7.00;;
21959;SDS011;11144;43.030;25.108;2022-09-09T03:12:03;12.13;;;7.70;;
21959;SDS011;11144;43.030;25.108;2022-09-09T03:13:38;12.68;;;7.70;;
21959;SDS011;11144;43.030;25.108;2022-09-09T03:15:12;14.02;;;7.32;;
21959;SDS011;11144;43.030;25.108;2022-09-09T03:16:47;9.23;;;7.97;;
21959;SDS011;11144;43.030;25.108;2022-09-09T03:18:21;9.70;;;7.47;;
21959;SDS011;11144;43.030;25.108;2022-09-09T03:19:57;10.23;;;7.85;;
21959;SDS011;11144;43.030;25.108;2022-09-09T03:21:31;9.35;;;7.72;;
21959;SDS011;11144;43.030;25.108;2022-09-09T03:23:04;12.75;;;8.02;;
21959;SDS011;11144;43.030;25.108;2022-09-09T03:24:40;15.13;;;7.88;;
21959;SDS011;11144;43.030;25.108;2022-09-09T03:26:14;10.88;;;7.78;;
21959;SDS011;11144;43.030;25.108;2022-09-09T03:27:50;11.63;;;7.72;;
21959;SDS011;11144;43.030;25.108;2022-09-09T03:29:27;11.35;;;7.38;;
21959;SDS011;11144;43.030;25.108;2022-09-09T03:31:04;12.57;;;7.95;;
21959;SDS011;11144;43.030;25.108;2022-09-09T03:32:45;20.75;;;8.23;;
21959;SDS011;11144;43.030;25.108;2022-09-09T03:34:20;12.18;;;7.82;;
21959;SDS011;11144;43.030;25.108;2022-09-09T03:35:52;11.07;;;7.75;;
21959;SDS011;11144;43.030;25.108;2022-09-09T03:37:28;10.00;;;6.85;;
21959;SDS011;11144;43.030;25.108;2022-09-09T03:39:01;11.10;;;7.80;;
21959;SDS011;11144;43.030;25.108;2022-09-09T03:40:35;11.88;;;7.18;;
21959;SDS011;11144;43.030;25.108;2022-09-09T03:42:09;11.57;;;6.47;;
21959;SDS011;11144;43.030;25.108;2022-09-09T03:43:45;11.95;;;7.63;;
21959;SDS011;11144;43.030;25.108;2022-09-09T03:45:19;11.00;;;6.82;;
21959;SDS011;11144;43.030;25.108;2022-09-09T03:46:52;9.93;;;6.95;;
21959;SDS011;11144;43.030;25.108;2022-09-09T03:48:27;8.05;;;6.68;;
21959;SDS011;11144;43.030;25.108;2022-09-09T03:50:00;9.63;;;7.60;;
21959;SDS011;11144;43.030;25.108;2022-09-09T03:51:36;11.20;;;7.45;;
21959;SDS011;11144;43.030;25.108;2022-09-09T03:53:10;8.52;;;7.18;;
21959;SDS011;11144;43.030;25.108;2022-09-09T03:54:44;10.07;;;6.78;;
21959;SDS011;11144;43.030;25.108;2022-09-09T03:56:16;10.15;;;7.40;;
21959;SDS011;11144;43.030;25.108;2022-09-09T03:57:49;10.95;;;8.05;;
21959;SDS011;11144;43.030;25.108;2022-09-09T03:59:23;14.60;;;7.10;;
21959;SDS011;11144;43.030;25.108;2022-09-09T04:00:57;7.93;;;7.00;;
21959;SDS011;11144;43.030;25.108;2022-09-09T04:02:32;10.40;;;6.93;;
21959;SDS011;11144;43.030;25.108;2022-09-09T04:04:06;10.10;;;7.80;;
21959;SDS011;11144;43.030;25.108;2022-09-09T04:05:40;9.75;;;7.28;;
21959;SDS011;11144;43.030;25.108;2022-09-09T04:07:15;8.88;;;7.13;;
21959;SDS011;11144;43.030;25.108;2022-09-09T04:08:48;11.57;;;7.72;;
21959;SDS011;11144;43.030;25.108;2022-09-09T04:10:24;11.80;;;7.18;;
21959;SDS011;11144;43.030;25.108;2022-09-09T04:11:59;11.25;;;7.85;;
21959;SDS011;11144;43.030;25.108;2022-09-09T04:13:33;11.15;;;7.55;;
21959;SDS011;11144;43.030;25.108;2022-09-09T04:15:10;8.98;;;7.20;;
21959;SDS011;11144;43.030;25.108;2022-09-09T04:16:44;17.45;;;7.82;;
21959;SDS011;11144;43.030;25.108;2022-09-09T04:18:17;15.63;;;7.57;;
21959;SDS011;11144;43.030;25.108;2022-09-09T04:19:53;24.88;;;8.45;;
21959;SDS011;11144;43.030;25.108;2022-09-09T04:21:26;13.25;;;7.53;;
21959;SDS011;11144;43.030;25.108;2022-09-09T04:23:00;9.50;;;6.40;;
21959;SDS011;11144;43.030;25.108;2022-09-09T04:24:32;9.00;;;7.30;;
21959;SDS011;11144;43.030;25.108;2022-09-09T04:26:06;13.15;;;8.68;;
21959;SDS011;11144;43.030;25.108;2022-09-09T04:27:41;13.70;;;7.40;;
21959;SDS011;11144;43.030;25.108;2022-09-09T04:29:14;8.15;;;6.93;;
21959;SDS011;11144;43.030;25.108;2022-09-09T04:30:47;13.68;;;6.60;;
21959;SDS011;11144;43.030;25.108;2022-09-09T04:32:20;15.50;;;6.93;;
21959;SDS011;11144;43.030;25.108;2022-09-09T04:33:54;11.48;;;7.05;;
21959;SDS011;11144;43.030;25.108;2022-09-09T04:35:30;7.75;;;6.85;;
21959;SDS011;11144;43.030;25.108;2022-09-09T04:37:03;12.63;;;6.80;;
21959;SDS011;11144;43.030;25.108;2022-09-09T04:38:36;8.93;;;6.38;;
21959;SDS011;11144;43.030;25.108;2022-09-09T04:40:10;10.43;;;7.03;;
21959;SDS011;11144;43.030;25.108;2022-09-09T04:41:42;8.02;;;6.95;;
21959;SDS011;11144;43.030;25.108;2022-09-09T04:43:17;8.20;;;6.80;;
21959;SDS011;11144;43.030;25.108;2022-09-09T04:44:52;19.10;;;7.43;;
21959;SDS011;11144;43.030;25.108;2022-09-09T04:46:25;9.10;;;7.40;;
21959;SDS011;11144;43.030;25.108;2022-09-09T04:47:59;11.85;;;6.60;;
21959;SDS011;11144;43.030;25.108;2022-09-09T04:49:34;10.27;;;6.20;;
21959;SDS011;11144;43.030;25.108;2022-09-09T04:51:10;16.95;;;7.00;;
21959;SDS011;11144;43.030;25.108;2022-09-09T04:52:46;11.38;;;7.50;;
21959;SDS011;11144;43.030;25.108;2022-09-09T04:54:20;12.10;;;6.85;;
21959;SDS011;11144;43.030;25.108;2022-09-09T04:56:00;10.57;;;7.60;;
21959;SDS011;11144;43.030;25.108;2022-09-09T04:57:38;11.25;;;6.85;;
21959;SDS011;11144;43.030;25.108;2022-09-09T04:59:15;11.02;;;6.20;;
21959;SDS011;11144;43.030;25.108;2022-09-09T05:00:52;10.05;;;6.57;;
21959;SDS011;11144;43.030;25.108;2022-09-09T05:02:25;10.00;;;5.85;;
21959;SDS011;11144;43.030;25.108;2022-09-09T05:04:02;9.63;;;5.93;;
21959;SDS011;11144;43.030;25.108;2022-09-09T05:05:37;9.82;;;6.07;;
21959;SDS011;11144;43.030;25.108;2022-09-09T05:07:12;6.22;;;5.60;;
21959;SDS011;11144;43.030;25.108;2022-09-09T05:08:46;8.20;;;5.60;;
21959;SDS011;11144;43.030;25.108;2022-09-09T05:10:24;7.63;;;5.32;;
21959;SDS011;11144;43.030;25.108;2022-09-09T05:11:58;7.50;;;5.13;;
21959;SDS011;11144;43.030;25.108;2022-09-09T05:13:35;8.23;;;4.80;;
21959;SDS011;11144;43.030;25.108;2022-09-09T05:15:12;8.00;;;4.65;;
21959;SDS011;11144;43.030;25.108;2022-09-09T05:16:45;6.82;;;4.65;;
21959;SDS011;11144;43.030;25.108;2022-09-09T05:18:22;6.30;;;4.95;;
21959;SDS011;11144;43.030;25.108;2022-09-09T05:19:55;6.82;;;4.10;;
21959;SDS011;11144;43.030;25.108;2022-09-09T05:21:29;8.88;;;3.90;;
21959;SDS011;11144;43.030;25.108;2022-09-09T05:23:04;8.85;;;4.25;;
21959;SDS011;11144;43.030;25.108;2022-09-09T05:24:38;5.68;;;4.53;;
21959;SDS011;11144;43.030;25.108;2022-09-09T05:26:12;6.60;;;3.88;;
21959;SDS011;11144;43.030;25.108;2022-09-09T05:27:50;6.97;;;4.25;;
21959;SDS011;11144;43.030;25.108;2022-09-09T05:29:25;5.28;;;4.18;;
21959;SDS011;11144;43.030;25.108;2022-09-09T05:31:00;6.95;;;4.32;;
21959;SDS011;11144;43.030;25.108;2022-09-09T05:32:38;5.60;;;4.10;;
21959;SDS011;11144;43.030;25.108;2022-09-09T05:34:12;5.32;;;4.28;;
21959;SDS011;11144;43.030;25.108;2022-09-09T05:35:45;5.82;;;4.38;;
21959;SDS011;11144;43.030;25.108;2022-09-09T05:37:19;5.60;;;3.58;;
21959;SDS011;11144;43.030;25.108;2022-09-09T05:38:54;6.05;;;4.25;;
21959;SDS011;11144;43.030;25.108;2022-09-09T05:40:29;6.90;;;4.20;;
21959;SDS011;11144;43.030;25.108;2022-09-09T05:42:03;10.60;;;4.07;;
21959;SDS011;11144;43.030;25.108;2022-09-09T05:43:37;6.03;;;3.83;;
21959;SDS011;11144;43.030;25.108;2022-09-09T05:45:11;5.07;;;3.90;;
21959;SDS011;11144;43.030;25.108;2022-09-09T05:46:44;6.10;;;3.75;;
21959;SDS011;11144;43.030;25.108;2022-09-09T05:48:18;6.82;;;3.97;;
21959;SDS011;11144;43.030;25.108;2022-09-09T05:49:52;8.40;;;3.85;;
21959;SDS011;11144;43.030;25.108;2022-09-09T05:51:26;9.98;;;3.67;;
21959;SDS011;11144;43.030;25.108;2022-09-09T05:53:05;3.67;;;3.38;;
21959;SDS011;11144;43.030;25.108;2022-09-09T05:54:40;6.47;;;3.63;;
21959;SDS011;11144;43.030;25.108;2022-09-09T05:56:14;7.32;;;3.75;;
21959;SDS011;11144;43.030;25.108;2022-09-09T05:57:49;4.00;;;3.53;;
21959;SDS011;11144;43.030;25.108;2022-09-09T05:59:24;3.60;;;3.30;;
21959;SDS011;11144;43.030;25.108;2022-09-09T06:01:00;4.38;;;3.85;;
21959;SDS011;11144;43.030;25.108;2022-09-09T06:02:35;7.28;;;3.88;;
21959;SDS011;11144;43.030;25.108;2022-09-09T06:04:10;4.72;;;3.90;;
21959;SDS011;11144;43.030;25.108;2022-09-09T06:05:44;7.38;;;4.13;;
21959;SDS011;11144;43.030;25.108;2022-09-09T06:07:17;7.65;;;4.15;;
21959;SDS011;11144;43.030;25.108;2022-09-09T06:08:51;7.30;;;3.88;;
21959;SDS011;11144;43.030;25.108;2022-09-09T06:10:27;6.97;;;4.35;;
21959;SDS011;11144;43.030;25.108;2022-09-09T06:12:00;11.98;;;4.30;;
21959;SDS011;11144;43.030;25.108;2022-09-09T06:13:37;5.82;;;4.65;;
21959;SDS011;11144;43.030;25.108;2022-09-09T06:15:11;9.88;;;4.50;;
21959;SDS011;11144;43.030;25.108;2022-09-09T06:16:44;6.95;;;4.40;;
21959;SDS011;11144;43.030;25.108;2022-09-09T06:18:22;8.57;;;4.68;;
21959;SDS011;11144;43.030;25.108;2022-09-09T06:19:54;8.32;;;4.15;;
21959;SDS011;11144;43.030;25.108;2022-09-09T06:21:28;9.02;;;4.20;;
21959;SDS011;11144;43.030;25.108;2022-09-09T06:23:05;8.13;;;4.93;;
21959;SDS011;11144;43.030;25.108;2022-09-09T06:24:38;6.93;;;4.68;;
21959;SDS011;11144;43.030;25.108;2022-09-09T06:26:14;7.13;;;4.40;;
21959;SDS011;11144;43.030;25.108;2022-09-09T06:27:49;6.32;;;4.88;;
21959;SDS011;11144;43.030;25.108;2022-09-09T06:29:23;9.40;;;4.78;;
21959;SDS011;11144;43.030;25.108;2022-09-09T06:30:57;8.40;;;5.38;;
21959;SDS011;11144;43.030;25.108;2022-09-09T06:32:32;7.75;;;4.65;;
21959;SDS011;11144;43.030;25.108;2022-09-09T06:34:06;8.55;;;5.47;;
21959;SDS011;11144;43.030;25.108;2022-09-09T06:35:50;7.32;;;5.22;;
21959;SDS011;11144;43.030;25.108;2022-09-09T06:37:25;5.50;;;4.40;;
21959;SDS011;11144;43.030;25.108;2022-09-09T06:38:59;5.47;;;4.85;;
21959;SDS011;11144;43.030;25.108;2022-09-09T06:40:34;8.85;;;4.43;;
21959;SDS011;11144;43.030;25.108;2022-09-09T06:42:09;5.65;;;4.68;;
21959;SDS011;11144;43.030;25.108;2022-09-09T06:44:09;8.07;;;5.00;;
21959;SDS011;11144;43.030;25.108;2022-09-09T06:45:52;10.70;;;4.30;;
21959;SDS011;11144;43.030;25.108;2022-09-09T06:47:26;4.70;;;4.13;;
21959;SDS011;11144;43.030;25.108;2022-09-09T06:49:02;8.23;;;4.50;;
21959;SDS011;11144;43.030;25.108;2022-09-09T06:50:36;11.75;;;4.63;;
21959;SDS011;11144;43.030;25.108;2022-09-09T06:52:09;7.72;;;4.18;;
21959;SDS011;11144;43.030;25.108;2022-09-09T06:53:44;8.55;;;3.53;;
21959;SDS011;11144;43.030;25.108;2022-09-09T06:55:18;5.00;;;3.00;;
21959;SDS011;11144;43.030;25.108;2022-09-09T06:56:52;9.18;;;3.83;;
21959;SDS011;11144;43.030;25.108;2022-09-09T06:58:29;6.38;;;4.03;;
21959;SDS011;11144;43.030;25.108;2022-09-09T07:00:05;8.10;;;3.10;;
21959;SDS011;11144;43.030;25.108;2022-09-09T07:01:40;8.90;;;3.53;;
21959;SDS011;11144;43.030;25.108;2022-09-09T07:03:17;16.15;;;4.20;;
21959;SDS011;11144;43.030;25.108;2022-09-09T07:04:50;8.30;;;3.95;;
21959;SDS011;11144;43.030;25.108;2022-09-09T07:06:24;4.70;;;3.03;;
21959;SDS011;11144;43.030;25.108;2022-09-09T07:08:00;10.50;;;3.55;;
21959;SDS011;11144;43.030;25.108;2022-09-09T07:09:34;9.50;;;3.60;;
21959;SDS011;11144;43.030;25.108;2022-09-09T07:11:08;8.57;;;3.85;;
21959;SDS011;11144;43.030;25.108;2022-09-09T07:12:45;8.35;;;3.70;;
21959;SDS011;11144;43.030;25.108;2022-09-09T07:14:26;7.72;;;3.70;;
21959;SDS011;11144;43.030;25.108;2022-09-09T07:16:03;3.70;;;3.40;;
21959;SDS011;11144;43.030;25.108;2022-09-09T07:17:36;8.25;;;3.72;;
21959;SDS011;11144;43.030;25.108;2022-09-09T07:19:10;6.28;;;3.83;;
21959;SDS011;11144;43.030;25.108;2022-09-09T07:20:52;9.63;;;4.07;;
21959;SDS011;11144;43.030;25.108;2022-09-09T07:22:27;7.05;;;4.30;;
21959;SDS011;11144;43.030;25.108;2022-09-09T07:24:01;6.80;;;3.97;;
21959;SDS011;11144;43.030;25.108;2022-09-09T07:25:43;8.55;;;3.70;;
21959;SDS011;11144;43.030;25.108;2022-09-09T07:27:19;5.13;;;3.67;;
21959;SDS011;11144;43.030;25.108;2022-09-09T07:28:54;5.07;;;3.38;;
21959;SDS011;11144;43.030;25.108;2022-09-09T07:30:30;6.32;;;3.40;;
21959;SDS011;11144;43.030;25.108;2022-09-09T07:32:03;4.45;;;3.13;;
21959;SDS011;11144;43.030;25.108;2022-09-09T07:33:40;4.15;;;3.30;;
21959;SDS011;11144;43.030;25.108;2022-09-09T07:35:14;5.75;;;3.20;;
21959;SDS011;11144;43.030;25.108;2022-09-09T07:36:48;6.78;;;3.50;;
21959;SDS011;11144;43.030;25.108;2022-09-09T07:38:22;7.13;;;3.78;;
21959;SDS011;11144;43.030;25.108;2022-09-09T07:39:56;9.77;;;3.78;;
21959;SDS011;11144;43.030;25.108;2022-09-09T07:41:30;7.38;;;3.85;;
21959;SDS011;11144;43.030;25.108;2022-09-09T07:43:05;6.38;;;3.58;;
21959;SDS011;11144;43.030;25.108;2022-09-09T07:44:39;5.07;;;3.70;;
21959;SDS011;11144;43.030;25.108;2022-09-09T07:46:20;6.53;;;3.50;;
21959;SDS011;11144;43.030;25.108;2022-09-09T07:47:55;5.80;;;3.17;;
21959;SDS011;11144;43.030;25.108;2022-09-09T07:49:29;5.03;;;3.42;;
21959;SDS011;11144;43.030;25.108;2022-09-09T07:51:06;6.85;;;3.50;;
21959;SDS011;11144;43.030;25.108;2022-09-09T07:52:43;4.85;;;3.08;;
21959;SDS011;11144;43.030;25.108;2022-09-09T07:54:18;4.70;;;3.28;;
21959;SDS011;11144;43.030;25.108;2022-09-09T07:56:01;6.88;;;3.05;;
21959;SDS011;11144;43.030;25.108;2022-09-09T07:57:36;7.00;;;2.97;;
21959;SDS011;11144;43.030;25.108;2022-09-09T07:59:09;7.93;;;3.15;;
21959;SDS011;11144;43.030;25.108;2022-09-09T08:00:45;3.53;;;2.70;;
21959;SDS011;11144;43.030;25.108;2022-09-09T08:02:20;5.72;;;3.10;;
21959;SDS011;11144;43.030;25.108;2022-09-09T08:03:54;5.43;;;2.95;;
21959;SDS011;11144;43.030;25.108;2022-09-09T08:05:30;4.93;;;3.33;;
21959;SDS011;11144;43.030;25.108;2022-09-09T08:07:04;5.85;;;3.10;;
21959;SDS011;11144;43.030;25.108;2022-09-09T08:08:45;12.10;;;3.20;;
21959;SDS011;11144;43.030;25.108;2022-09-09T08:10:23;6.15;;;2.88;;
21959;SDS011;11144;43.030;25.108;2022-09-09T08:11:58;5.07;;;2.65;;
21959;SDS011;11144;43.030;25.108;2022-09-09T08:13:33;5.53;;;2.53;;
21959;SDS011;11144;43.030;25.108;2022-09-09T08:15:08;4.82;;;2.38;;
21959;SDS011;11144;43.030;25.108;2022-09-09T08:16:42;3.85;;;2.05;;
21959;SDS011;11144;43.030;25.108;2022-09-09T08:18:22;6.38;;;2.92;;
21959;SDS011;11144;43.030;25.108;2022-09-09T08:19:55;3.90;;;2.63;;
21959;SDS011;11144;43.030;25.108;2022-09-09T08:21:31;4.47;;;2.75;;
21959;SDS011;11144;43.030;25.108;2022-09-09T08:23:06;5.82;;;2.65;;
21959;SDS011;11144;43.030;25.108;2022-09-09T08:24:39;4.05;;;2.65;;
21959;SDS011;11144;43.030;25.108;2022-09-09T08:26:13;4.63;;;2.80;;
21959;SDS011;11144;43.030;25.108;2022-09-09T08:27:48;3.72;;;2.67;;
21959;SDS011;11144;43.030;25.108;2022-09-09T08:29:22;4.18;;;2.65;;
21959;SDS011;11144;43.030;25.108;2022-09-09T08:31:04;4.70;;;2.13;;
21959;SDS011;11144;43.030;25.108;2022-09-09T08:32:43;4.10;;;2.50;;
21959;SDS011;11144;43.030;25.108;2022-09-09T08:34:20;2.50;;;2.28;;
21959;SDS011;11144;43.030;25.108;2022-09-09T08:35:55;6.97;;;2.85;;
21959;SDS011;11144;43.030;25.108;2022-09-09T08:37:27;3.38;;;1.95;;
21959;SDS011;11144;43.030;25.108;2022-09-09T08:39:01;4.05;;;2.17;;
21959;SDS011;11144;43.030;25.108;2022-09-09T08:40:36;3.90;;;2.08;;
21959;SDS011;11144;43.030;25.108;2022-09-09T08:42:21;4.68;;;2.78;;
21959;SDS011;11144;43.030;25.108;2022-09-09T08:44:05;5.07;;;2.25;;
21959;SDS011;11144;43.030;25.108;2022-09-09T08:45:42;3.10;;;2.17;;
21959;SDS011;11144;43.030;25.108;2022-09-09T08:47:23;5.13;;;2.47;;
21959;SDS011;11144;43.030;25.108;2022-09-09T08:49:12;4.43;;;2.35;;
21959;SDS011;11144;43.030;25.108;2022-09-09T08:51:00;4.97;;;2.53;;
21959;SDS011;11144;43.030;25.108;2022-09-09T08:52:39;4.35;;;2.70;;
21959;SDS011;11144;43.030;25.108;2022-09-09T08:54:21;4.65;;;2.85;;
21959;SDS011;11144;43.030;25.108;2022-09-09T08:56:16;5.60;;;2.67;;
21959;SDS011;11144;43.030;25.108;2022-09-09T08:57:57;3.45;;;2.30;;
21959;SDS011;11144;43.030;25.108;2022-09-09T08:59:43;5.15;;;2.63;;
